Conesville, Iowa
Current Conditions -  °F | °C
As of 8:35 AM on Thursday 27 Nov 2014 (Local Time) from KMUT Reporting Station
Overcast Overcast  
Wind Chill:   Ceiling: 3400
Heat Index: 19°   Visibility: 10mi
Dew Point: 14°   Wind: 14mph
Humidity: 80%   Direction: 300°WNW
Pressure: 30.46"   Gusts: 24mph
Location:  41.38°N, 91.35°W
Report Text: KMUT 271435Z AUTO 30012G21KT 10SM OVC034 M07/M10 A3046 RMK AO2
Loading
Personal Weather Stations






























Interactive Weather Map New forecast layout! Learn more

10-Day Weather Forecast

Advertisements
Track Severe Weather on mobile